createdAt,value
2023-05-24T00:00:00.421Z,67.41
2023-05-24T00:01:00.501Z,70.17
2023-05-24T00:02:00.548Z,67.01
2023-05-24T00:03:00.691Z,68.76
2023-05-24T00:04:00.864Z,66.85
2023-05-24T00:05:00.829Z,67.98
2023-05-24T00:06:00.754Z,68.35
2023-05-24T00:07:00.763Z,65.45
2023-05-24T00:08:00.812Z,69.77
2023-05-24T00:09:00.804Z,69.86
2023-05-24T00:10:00.891Z,69.62
2023-05-24T00:11:00.926Z,68.87
2023-05-24T00:12:00.986Z,64.31
2023-05-24T00:13:01.057Z,63.74
2023-05-24T00:14:01.068Z,62.47
2023-05-24T00:15:01.139Z,61.54
2023-05-24T00:16:01.146Z,61.56
2023-05-24T00:17:01.218Z,62.51
2023-05-24T00:18:01.325Z,63.40
2023-05-24T00:19:01.303Z,63.79
2023-05-24T00:20:01.368Z,63.29
2023-05-24T00:21:01.448Z,62.22
2023-05-24T00:22:01.436Z,61.41
2023-05-24T00:23:01.479Z,64.14
2023-05-24T00:24:01.529Z,65.25
2023-05-24T00:25:01.560Z,62.49
2023-05-24T00:26:01.603Z,64.26
2023-05-24T00:27:01.679Z,65.73
2023-05-24T00:28:01.715Z,65.64
2023-05-24T00:29:01.776Z,65.64
2023-05-24T00:30:01.826Z,64.75
2023-05-24T00:31:01.892Z,64.61
2023-05-24T00:32:01.932Z,65.35
2023-05-24T00:33:02.005Z,64.81
2023-05-24T00:34:01.997Z,64.78
2023-05-24T00:35:02.085Z,65.15
2023-05-24T00:36:02.113Z,64.39
2023-05-24T00:37:02.150Z,63.80
2023-05-24T00:38:02.193Z,63.20
2023-05-24T00:39:02.250Z,64.74
2023-05-24T00:40:02.327Z,61.34
2023-05-24T00:41:02.323Z,62.45
2023-05-24T00:42:02.400Z,62.84
2023-05-24T00:43:02.437Z,61.85
2023-05-24T00:44:02.495Z,61.15
2023-05-24T00:45:02.548Z,60.57
2023-05-24T00:46:02.662Z,59.30
2023-05-24T00:47:02.670Z,57.28
2023-05-24T00:48:02.750Z,58.88
2023-05-24T00:49:02.760Z,57.80
2023-05-24T00:50:02.795Z,53.92
2023-05-24T00:51:02.879Z,54.61
2023-05-24T00:52:02.957Z,54.14
2023-05-24T00:53:02.982Z,53.13
2023-05-24T00:54:03.080Z,54.76
2023-05-24T00:55:03.133Z,55.35
2023-05-24T00:56:03.160Z,55.05
2023-05-24T00:57:03.226Z,53.92
2023-05-24T00:58:03.258Z,52.91
2023-05-24T00:59:03.346Z,53.59
2023-05-24T01:00:03.411Z,52.94
2023-05-24T01:01:03.513Z,51.09
2023-05-24T01:02:03.685Z,53.36
2023-05-24T01:03:03.605Z,51.77
2023-05-24T01:04:03.629Z,51.18
2023-05-24T01:05:03.683Z,50.24
2023-05-24T01:06:03.762Z,50.43
2023-05-24T01:07:03.845Z,50.96
2023-05-24T01:08:03.864Z,50.00
2023-05-24T01:09:03.939Z,51.36
2023-05-24T01:10:03.995Z,50.82
2023-05-24T01:11:04.059Z,52.72
2023-05-24T01:12:04.102Z,53.31
2023-05-24T01:13:04.179Z,53.49
2023-05-24T01:14:04.207Z,53.87
2023-05-24T01:15:04.289Z,54.52
2023-05-24T01:16:04.368Z,53.79
2023-05-24T01:17:04.422Z,56.95
2023-05-24T01:18:04.566Z,53.60
2023-05-24T01:19:04.555Z,53.35
2023-05-24T01:20:04.611Z,52.39
2023-05-24T01:21:04.674Z,52.57
2023-05-24T01:22:04.769Z,53.04
2023-05-24T01:23:04.778Z,55.13
2023-05-24T01:24:04.852Z,53.94
2023-05-24T01:25:04.915Z,55.16
2023-05-24T01:26:05.003Z,54.48
2023-05-24T01:27:05.071Z,54.95
2023-05-24T01:28:05.128Z,52.10
2023-05-24T01:29:05.216Z,52.93
2023-05-24T01:30:05.239Z,53.22
2023-05-24T01:31:05.325Z,52.39
2023-05-24T01:32:05.344Z,56.03
2023-05-24T01:33:05.400Z,53.86
2023-05-24T01:34:05.453Z,54.53
2023-05-24T01:35:05.532Z,54.34
2023-05-24T01:36:05.555Z,56.75
2023-05-24T01:37:05.653Z,57.25
2023-05-24T01:38:05.726Z,57.86
2023-05-24T01:39:05.760Z,56.68
2023-05-24T01:40:05.840Z,56.12
2023-05-24T01:41:05.931Z,57.51
2023-05-24T01:42:05.952Z,56.83
2023-05-24T01:43:05.991Z,58.31
2023-05-24T01:44:06.051Z,58.79
2023-05-24T01:45:06.090Z,58.54
2023-05-24T01:46:06.162Z,60.02
2023-05-24T01:47:06.252Z,58.70
2023-05-24T01:48:06.371Z,60.01
2023-05-24T01:49:06.286Z,58.44
2023-05-24T01:50:06.308Z,60.66
2023-05-24T01:51:06.299Z,60.77
2023-05-24T01:52:06.422Z,59.66
2023-05-24T01:53:06.395Z,57.71
2023-05-24T01:54:06.398Z,56.67
2023-05-24T01:55:06.401Z,58.71
2023-05-24T01:56:06.448Z,57.53
2023-05-24T01:57:06.458Z,55.20
2023-05-24T01:58:06.483Z,57.25
2023-05-24T01:59:06.526Z,58.49
2023-05-24T02:00:06.549Z,58.47
2023-05-24T02:01:06.643Z,59.76
2023-05-24T02:02:06.624Z,60.60
2023-05-24T02:03:06.798Z,58.98
2023-05-24T02:04:06.636Z,60.19
2023-05-24T02:05:06.681Z,61.94
2023-05-24T02:06:06.719Z,61.66
2023-05-24T02:07:06.727Z,63.13
2023-05-24T02:08:06.800Z,62.60
2023-05-24T02:09:06.837Z,62.89
2023-05-24T02:10:06.810Z,62.92
2023-05-24T02:11:06.868Z,64.72
2023-05-24T02:12:06.937Z,63.30
2023-05-24T02:13:06.985Z,62.40
2023-05-24T02:14:07.016Z,61.71
2023-05-24T02:15:07.077Z,60.16
2023-05-24T02:16:07.063Z,62.61
2023-05-24T02:17:07.162Z,63.52
2023-05-24T02:18:07.137Z,62.52
2023-05-24T02:19:07.160Z,60.71
2023-05-24T02:20:07.221Z,62.18
2023-05-24T02:21:07.181Z,61.28
2023-05-24T02:22:07.224Z,61.59
2023-05-24T02:23:07.244Z,58.97
2023-05-24T02:24:07.266Z,58.47
2023-05-24T02:25:07.275Z,57.54
2023-05-24T02:27:07.289Z,56.82
2023-05-24T02:28:07.265Z,55.53
2023-05-24T02:29:07.295Z,55.03
2023-05-24T02:30:07.259Z,54.94
2023-05-24T02:31:07.281Z,55.33
2023-05-24T02:32:07.261Z,54.09
2023-05-24T02:33:07.303Z,54.88
2023-05-24T02:34:07.253Z,54.14
2023-05-24T02:35:07.270Z,55.28
2023-05-24T02:36:07.271Z,55.35
2023-05-24T02:37:07.282Z,55.88
2023-05-24T02:38:07.280Z,56.39
2023-05-24T02:39:07.286Z,57.02
2023-05-24T02:40:07.284Z,59.47
2023-05-24T02:41:07.322Z,61.07
2023-05-24T02:42:07.333Z,60.55
2023-05-24T02:43:07.357Z,59.89
2023-05-24T02:44:07.339Z,61.19
2023-05-24T02:45:07.360Z,60.86
2023-05-24T02:46:07.410Z,62.04
2023-05-24T02:47:07.409Z,62.93
2023-05-24T02:48:07.452Z,63.21
2023-05-24T02:49:07.433Z,62.66
2023-05-24T02:50:07.454Z,62.35
2023-05-24T02:51:07.482Z,63.23
2023-05-24T02:52:07.445Z,64.60
2023-05-24T02:53:07.457Z,64.95
2023-05-24T02:54:07.436Z,64.55
2023-05-24T02:55:07.494Z,63.83
2023-05-24T02:56:07.473Z,63.93
2023-05-24T02:57:07.429Z,61.90
2023-05-24T02:58:07.448Z,61.75
2023-05-24T02:59:07.442Z,60.40
2023-05-24T03:00:07.422Z,60.89
2023-05-24T03:01:07.428Z,59.69
2023-05-24T03:02:07.470Z,58.47
2023-05-24T03:03:07.498Z,58.89
2023-05-24T03:04:07.487Z,57.79
2023-05-24T03:05:07.416Z,58.11
2023-05-24T03:06:07.407Z,59.56
2023-05-24T03:07:07.413Z,60.13
2023-05-24T03:08:07.395Z,61.85
2023-05-24T03:09:07.431Z,61.90
2023-05-24T03:10:07.406Z,61.07
2023-05-24T03:11:07.436Z,61.25
2023-05-24T03:12:07.400Z,62.86
2023-05-24T03:13:07.396Z,62.66
2023-05-24T03:14:07.409Z,62.62
2023-05-24T03:15:07.415Z,62.99
2023-05-24T03:16:07.432Z,64.09
2023-05-24T03:17:07.376Z,62.88
2023-05-24T03:18:07.478Z,60.82
2023-05-24T03:19:09.879Z,62.24
2023-05-24T03:20:07.502Z,62.89
2023-05-24T03:21:07.453Z,63.54
2023-05-24T03:22:07.398Z,65.07
2023-05-24T03:23:07.379Z,64.40
2023-05-24T03:24:07.358Z,65.23
2023-05-24T03:25:07.383Z,67.98
2023-05-24T03:26:07.343Z,67.83
2023-05-24T03:27:07.363Z,67.81
2023-05-24T03:28:07.349Z,68.69
2023-05-24T03:29:07.367Z,68.00
2023-05-24T03:30:07.386Z,67.57
2023-05-24T03:31:07.321Z,66.68
2023-05-24T03:32:07.367Z,66.14
2023-05-24T03:33:07.355Z,66.17
2023-05-24T03:34:07.290Z,66.55
2023-05-24T03:35:07.299Z,66.90
2023-05-24T03:36:07.277Z,67.42
2023-05-24T03:37:07.269Z,67.45
2023-05-24T03:38:07.249Z,65.68
2023-05-24T03:39:07.253Z,62.62
2023-05-24T03:40:07.290Z,61.35
2023-05-24T03:41:07.252Z,61.44
2023-05-24T03:42:07.267Z,58.30
2023-05-24T03:43:07.248Z,57.86
2023-05-24T03:44:07.252Z,58.33
2023-05-24T03:45:07.235Z,57.90
2023-05-24T03:46:07.217Z,57.55
2023-05-24T03:47:07.192Z,54.84
2023-05-24T03:48:07.193Z,55.66
2023-05-24T03:49:07.205Z,54.21
2023-05-24T03:50:07.176Z,53.23
2023-05-24T03:51:07.172Z,52.31
2023-05-24T03:52:07.190Z,54.42
2023-05-24T03:53:07.155Z,53.64
2023-05-24T03:54:07.186Z,53.50
2023-05-24T03:55:07.126Z,55.43
2023-05-24T03:56:07.153Z,54.94
2023-05-24T03:57:07.144Z,56.30
2023-05-24T03:58:07.082Z,56.54
2023-05-24T03:59:07.098Z,57.45
2023-05-24T04:00:07.114Z,57.70
2023-05-24T04:01:07.073Z,57.92
2023-05-24T04:02:07.079Z,57.77
2023-05-24T04:03:07.182Z,58.24
2023-05-24T04:04:07.083Z,57.02
2023-05-24T04:05:07.037Z,55.20
2023-05-24T04:06:07.060Z,55.84
2023-05-24T04:07:07.053Z,58.78
2023-05-24T04:08:07.033Z,58.36
2023-05-24T04:09:07.032Z,58.44
2023-05-24T04:10:06.996Z,58.19
2023-05-24T04:11:07.001Z,58.43
2023-05-24T04:12:07.031Z,57.00
2023-05-24T04:13:06.996Z,57.74
2023-05-24T04:14:06.986Z,59.64
2023-05-24T04:15:06.967Z,59.34
2023-05-24T04:16:06.979Z,59.42
2023-05-24T04:17:07.029Z,58.67
2023-05-24T04:18:07.056Z,58.54
2023-05-24T04:19:06.920Z,59.63
2023-05-24T04:20:06.991Z,58.25
2023-05-24T04:21:06.936Z,57.96
2023-05-24T04:22:06.904Z,58.69
2023-05-24T04:23:06.924Z,58.38
2023-05-24T04:24:06.922Z,57.30
2023-05-24T04:25:07.014Z,58.88
2023-05-24T04:26:06.913Z,59.80
2023-05-24T04:27:06.877Z,59.30
2023-05-24T04:28:06.912Z,59.72
2023-05-24T04:29:06.865Z,58.51
2023-05-24T04:30:06.879Z,59.19
2023-05-24T04:31:06.953Z,59.06
2023-05-24T04:32:06.836Z,58.57
2023-05-24T04:33:06.986Z,58.62
2023-05-24T04:34:06.839Z,59.10
2023-05-24T04:35:06.806Z,61.78
2023-05-24T04:36:06.847Z,59.96
2023-05-24T04:37:06.830Z,58.41
2023-05-24T04:38:06.802Z,59.31
2023-05-24T04:39:06.824Z,57.50
2023-05-24T04:40:06.790Z,57.57
2023-05-24T04:41:06.791Z,56.78
2023-05-24T04:42:06.769Z,56.85
2023-05-24T04:43:06.777Z,56.87
2023-05-24T04:44:06.769Z,56.09
2023-05-24T04:45:06.745Z,58.21
2023-05-24T04:46:08.937Z,57.34
2023-05-24T04:47:07.227Z,58.75
2023-05-24T04:48:07.070Z,56.08
2023-05-24T04:49:07.045Z,55.67
2023-05-24T04:50:07.076Z,56.16
2023-05-24T04:51:07.126Z,59.10
2023-05-24T04:52:07.136Z,60.00
2023-05-24T04:53:07.167Z,60.11
2023-05-24T04:54:07.215Z,60.00
2023-05-24T04:55:07.216Z,59.70
2023-05-24T04:56:07.239Z,59.18
2023-05-24T04:57:07.248Z,58.81
2023-05-24T04:58:07.271Z,62.62
2023-05-24T04:59:07.285Z,62.27
2023-05-24T05:00:07.326Z,62.59
2023-05-24T05:01:07.349Z,62.53
2023-05-24T05:02:07.463Z,63.93
2023-05-24T05:03:07.473Z,66.13
2023-05-24T05:04:07.575Z,66.68
2023-05-24T05:05:07.422Z,66.62
2023-05-24T05:06:07.447Z,68.63
2023-05-24T05:07:07.454Z,70.58
2023-05-24T05:08:07.465Z,67.78
2023-05-24T05:09:07.484Z,67.17
2023-05-24T05:10:07.519Z,68.08
2023-05-24T05:11:07.540Z,67.56
2023-05-24T05:12:07.553Z,65.05
2023-05-24T05:13:07.568Z,66.01
2023-05-24T05:14:07.588Z,65.36
2023-05-24T05:15:07.599Z,66.07
2023-05-24T05:16:07.626Z,65.89
2023-05-24T05:17:07.658Z,66.59
2023-05-24T05:18:07.734Z,66.72
2023-05-24T05:19:07.686Z,68.21
2023-05-24T05:20:07.741Z,71.29
2023-05-24T05:21:07.722Z,71.96
2023-05-24T05:22:07.761Z,70.51
2023-05-24T05:23:07.768Z,72.50
2023-05-24T05:24:07.757Z,73.04
2023-05-24T05:25:07.804Z,72.51
2023-05-24T05:26:07.805Z,74.57
2023-05-24T05:27:07.815Z,73.07
2023-05-24T05:28:07.853Z,73.73
2023-05-24T05:29:07.859Z,74.09
2023-05-24T05:30:07.843Z,72.35
2023-05-24T05:31:07.857Z,74.53
2023-05-24T05:32:07.916Z,76.64
2023-05-24T05:33:07.991Z,77.36
2023-05-24T05:34:07.888Z,78.51
2023-05-24T05:35:07.941Z,79.69
2023-05-24T05:36:07.924Z,78.57
2023-05-24T05:37:07.940Z,80.38
2023-05-24T05:38:07.949Z,80.39
2023-05-24T05:39:07.962Z,81.08
2023-05-24T05:40:07.954Z,81.45
2023-05-24T05:41:07.971Z,80.36
2023-05-24T05:42:07.968Z,80.42
2023-05-24T05:43:07.967Z,81.54
2023-05-24T05:44:07.997Z,82.94
2023-05-24T05:45:08.109Z,82.87
2023-05-24T05:46:08.006Z,82.54
2023-05-24T05:47:07.996Z,80.51
2023-05-24T05:48:08.078Z,80.00
2023-05-24T05:49:08.045Z,81.12
2023-05-24T05:50:08.043Z,81.61
2023-05-24T05:51:08.035Z,81.34
2023-05-24T05:52:08.035Z,83.43
2023-05-24T05:53:08.062Z,84.06
2023-05-24T05:54:08.021Z,84.59
2023-05-24T05:55:08.025Z,83.54
2023-05-24T05:56:08.075Z,86.50
2023-05-24T05:57:08.078Z,84.89
2023-05-24T05:58:08.060Z,85.45
2023-05-24T05:59:08.107Z,85.24
2023-05-24T06:00:08.066Z,84.18
2023-05-24T06:01:08.089Z,85.10
2023-05-24T06:02:08.217Z,85.28
2023-05-24T06:03:08.252Z,85.38
2023-05-24T06:04:08.328Z,84.65
2023-05-24T06:05:08.175Z,83.88
2023-05-24T06:06:08.167Z,84.73
2023-05-24T06:07:08.165Z,86.30
2023-05-24T06:08:08.199Z,86.20
2023-05-24T06:09:08.204Z,87.11
2023-05-24T06:10:08.187Z,87.11
2023-05-24T06:11:08.222Z,86.15
2023-05-24T06:12:08.171Z,84.33
2023-05-24T06:13:08.207Z,82.22
2023-05-24T06:14:08.221Z,80.53
2023-05-24T06:15:08.263Z,79.53
2023-05-24T06:16:08.274Z,78.21
2023-05-24T06:17:08.280Z,76.39
2023-05-24T06:18:08.270Z,75.78
2023-05-24T06:19:08.306Z,76.50
2023-05-24T06:20:08.376Z,75.63
2023-05-24T06:21:08.326Z,78.63
2023-05-24T06:22:08.303Z,79.29
2023-05-24T06:23:08.339Z,78.54
2023-05-24T06:24:08.375Z,80.02
2023-05-24T06:25:08.386Z,81.60
2023-05-24T06:26:08.372Z,82.81
2023-05-24T06:27:08.389Z,82.58
2023-05-24T06:28:08.421Z,81.46
2023-05-24T06:29:08.438Z,84.23
2023-05-24T06:30:08.491Z,84.35
2023-05-24T06:31:08.485Z,83.96
2023-05-24T06:32:08.515Z,83.14
2023-05-24T06:33:08.502Z,83.52
2023-05-24T06:34:08.512Z,83.84
2023-05-24T06:35:08.535Z,86.93
2023-05-24T06:36:08.538Z,85.56
2023-05-24T06:37:08.559Z,86.67
2023-05-24T06:38:08.577Z,86.04
2023-05-24T06:39:08.550Z,86.32
2023-05-24T06:40:08.565Z,88.00
2023-05-24T06:41:08.606Z,88.36
2023-05-24T06:42:08.604Z,87.87
2023-05-24T06:43:08.588Z,86.97
2023-05-24T06:44:08.610Z,87.51
2023-05-24T06:45:08.733Z,90.46
2023-05-24T06:46:08.624Z,86.55
2023-05-24T06:47:08.680Z,87.34
2023-05-24T06:48:08.799Z,84.50
2023-05-24T06:49:08.736Z,85.92
2023-05-24T06:50:08.657Z,84.14
2023-05-24T06:51:08.649Z,82.95
2023-05-24T06:52:08.697Z,82.66
2023-05-24T06:53:08.659Z,79.92
2023-05-24T06:54:08.685Z,77.01
2023-05-24T06:55:08.714Z,78.94
2023-05-24T06:56:08.705Z,76.34
2023-05-24T06:57:08.689Z,77.69
2023-05-24T06:58:08.698Z,77.47
2023-05-24T06:59:08.747Z,77.05
2023-05-24T07:00:08.761Z,74.50
2023-05-24T07:01:08.871Z,73.58
2023-05-24T07:02:08.770Z,73.31
2023-05-24T07:03:08.780Z,72.43
2023-05-24T07:04:08.807Z,72.10
2023-05-24T07:05:08.774Z,73.17
2023-05-24T07:06:08.794Z,73.54
2023-05-24T07:07:08.790Z,71.36
2023-05-24T07:08:08.797Z,72.84
2023-05-24T07:09:08.810Z,72.35
2023-05-24T07:10:08.838Z,73.34
2023-05-24T07:11:08.885Z,73.78
2023-05-24T07:12:09.279Z,74.33
2023-05-24T07:13:08.811Z,69.93
2023-05-24T07:14:10.923Z,68.26
2023-05-24T07:15:08.837Z,66.27
2023-05-24T07:16:08.832Z,67.85
2023-05-24T07:17:08.957Z,69.40
2023-05-24T07:18:08.937Z,69.75
2023-05-24T07:19:08.833Z,69.06
2023-05-24T07:20:09.026Z,69.78
2023-05-24T07:21:08.915Z,71.10
2023-05-24T07:22:08.854Z,67.84
2023-05-24T07:23:08.873Z,67.83
2023-05-24T07:24:08.870Z,69.35
2023-05-24T07:25:08.865Z,69.37
2023-05-24T07:26:08.880Z,70.68
2023-05-24T07:27:08.866Z,69.56
2023-05-24T07:28:08.878Z,70.50
2023-05-24T07:29:08.883Z,70.65
2023-05-24T07:30:19.698Z,71.14
2023-05-24T07:31:09.907Z,71.24
2023-05-24T07:32:08.911Z,71.61
2023-05-24T07:33:09.039Z,69.66
2023-05-24T07:34:08.859Z,69.61
2023-05-24T07:35:08.874Z,70.20
2023-05-24T07:36:08.881Z,70.92
2023-05-24T07:37:08.823Z,71.54
2023-05-24T07:38:08.855Z,72.18
2023-05-24T07:39:08.812Z,72.15
2023-05-24T07:40:08.811Z,71.60
2023-05-24T07:41:08.790Z,69.76
2023-05-24T07:42:08.804Z,67.83
2023-05-24T07:43:08.782Z,87.64
2023-05-24T07:44:08.799Z,96.02
2023-05-24T07:45:08.773Z,90.49
2023-05-24T07:46:08.785Z,108.60
2023-05-24T07:47:08.749Z,117.80
2023-05-24T07:48:08.825Z,121.90
2023-05-24T07:49:08.767Z,104.12
2023-05-24T07:50:08.738Z,103.64
2023-05-24T07:51:08.740Z,109.45
2023-05-24T07:52:08.728Z,119.79
2023-05-24T07:53:08.717Z,133.50
2023-05-24T07:54:08.708Z,140.93
2023-05-24T07:55:08.721Z,142.17
2023-05-24T07:56:08.689Z,150.35
2023-05-24T07:57:09.544Z,159.06
2023-05-24T07:58:08.746Z,171.52
2023-05-24T07:59:08.793Z,178.75
2023-05-24T08:00:08.819Z,189.19
2023-05-24T08:01:08.928Z,190.49
2023-05-24T08:02:08.852Z,198.37
2023-05-24T08:03:09.039Z,194.17
2023-05-24T08:04:08.974Z,198.97
2023-05-24T08:05:08.915Z,200.00
2023-05-24T08:06:08.885Z,197.50
2023-05-24T08:07:10.869Z,195.11
2023-05-24T08:08:08.900Z,196.42
2023-05-24T08:09:08.915Z,199.59
2023-05-24T08:10:08.913Z,199.21
2023-05-24T08:11:08.935Z,200.49
2023-05-24T08:12:08.900Z,200.00
2023-05-24T08:13:08.910Z,199.79
2023-05-24T08:14:08.912Z,200.00
2023-05-24T08:15:08.969Z,199.64
2023-05-24T08:16:09.043Z,200.00
2023-05-24T08:17:09.031Z,199.38
2023-05-24T08:18:09.150Z,198.09
2023-05-24T08:19:09.157Z,200.00
2023-05-24T08:20:09.316Z,200.00
2023-05-24T08:21:09.314Z,195.91
2023-05-24T08:22:09.358Z,187.12
2023-05-24T08:23:09.397Z,189.32
2023-05-24T08:24:09.794Z,196.17
2023-05-24T08:25:09.533Z,198.95
2023-05-24T08:26:09.608Z,200.00
2023-05-24T08:27:09.651Z,200.00
2023-05-24T08:28:09.760Z,200.08
2023-05-24T08:29:09.781Z,200.00
2023-05-24T08:30:09.832Z,200.00
2023-05-24T08:31:09.899Z,199.97
2023-05-24T08:32:10.040Z,199.53
2023-05-24T08:33:10.021Z,198.72
2023-05-24T08:34:10.010Z,198.90
2023-05-24T08:35:19.590Z,198.74
2023-05-24T08:36:11.058Z,198.78
2023-05-24T08:37:10.084Z,194.97
2023-05-24T08:38:10.048Z,199.46
2023-05-24T08:39:10.043Z,179.99
2023-05-24T08:40:10.100Z,184.60
2023-05-24T08:41:10.053Z,193.82
2023-05-24T08:42:10.615Z,200.31
2023-05-24T08:43:10.006Z,200.79
2023-05-24T08:44:10.032Z,200.19
2023-05-24T08:45:09.997Z,199.85
2023-05-24T08:46:10.015Z,200.18
2023-05-24T08:47:09.992Z,200.25
2023-05-24T08:48:10.103Z,199.88
2023-05-24T08:49:10.069Z,198.15
2023-05-24T08:50:09.987Z,198.06
2023-05-24T08:51:09.948Z,199.12
2023-05-24T08:52:09.965Z,196.96
2023-05-24T08:53:10.001Z,194.94
2023-05-24T08:54:10.021Z,189.81
2023-05-24T08:55:10.021Z,192.99
2023-05-24T08:56:10.066Z,194.68
2023-05-24T08:57:10.084Z,199.44
2023-05-24T08:58:10.077Z,198.98
2023-05-24T08:59:10.112Z,197.87
2023-05-24T09:00:10.153Z,199.55
2023-05-24T09:01:10.211Z,199.78
2023-05-24T09:02:10.189Z,199.65
2023-05-24T09:03:10.246Z,199.04
2023-05-24T09:04:10.267Z,198.85
2023-05-24T09:05:10.204Z,197.95
2023-05-24T09:06:10.176Z,197.41
2023-05-24T09:07:10.174Z,197.50
2023-05-24T09:08:10.249Z,199.28
2023-05-24T09:09:10.208Z,199.33
2023-05-24T09:10:10.231Z,198.64
2023-05-24T09:11:10.240Z,198.72
2023-05-24T09:12:11.096Z,198.65
2023-05-24T09:13:10.264Z,198.77
2023-05-24T09:14:10.273Z,198.87
2023-05-24T09:15:10.257Z,199.38
2023-05-24T09:16:10.266Z,199.58
2023-05-24T09:17:10.210Z,201.81
2023-05-24T09:18:10.245Z,199.07
2023-05-24T09:19:10.176Z,199.88
2023-05-24T09:20:10.400Z,198.42
2023-05-24T09:21:10.199Z,198.96
2023-05-24T09:22:10.172Z,197.62
2023-05-24T09:23:10.157Z,198.38
2023-05-24T09:24:10.156Z,197.77
2023-05-24T09:25:10.274Z,194.06
2023-05-24T09:26:10.196Z,197.78
2023-05-24T09:27:10.144Z,198.24
2023-05-24T09:28:10.191Z,190.26
2023-05-24T09:29:10.115Z,191.15
2023-05-24T09:30:10.395Z,189.32
2023-05-24T09:31:10.139Z,190.55
2023-05-24T09:32:10.099Z,191.56
2023-05-24T09:33:10.147Z,192.61
2023-05-24T09:34:10.076Z,192.57
2023-05-24T09:35:10.416Z,192.65
2023-05-24T09:36:10.107Z,192.60
2023-05-24T09:37:10.083Z,193.47
2023-05-24T09:38:10.064Z,193.17
2023-05-24T09:39:10.032Z,191.81
2023-05-24T09:40:10.059Z,191.50
2023-05-24T09:41:10.040Z,192.82
2023-05-24T09:42:10.031Z,191.97
2023-05-24T09:43:10.202Z,191.61
2023-05-24T09:44:10.012Z,191.63
2023-05-24T09:45:10.062Z,192.16
2023-05-24T09:46:10.003Z,191.41
2023-05-24T09:47:10.037Z,191.66
2023-05-24T09:48:10.033Z,192.06
2023-05-24T09:49:09.985Z,191.39
2023-05-24T09:50:09.969Z,191.31
2023-05-24T09:51:10.112Z,191.45
2023-05-24T09:52:10.093Z,191.45
2023-05-24T09:53:09.935Z,191.08
2023-05-24T09:54:09.946Z,190.79
2023-05-24T09:55:09.950Z,190.27
2023-05-24T09:56:09.965Z,190.27
2023-05-24T09:57:09.926Z,190.28
2023-05-24T09:58:09.893Z,190.17
2023-05-24T09:59:09.949Z,189.90
2023-05-24T10:00:09.877Z,189.52
2023-05-24T10:01:09.919Z,189.21
2023-05-24T10:02:09.909Z,188.80
2023-05-24T10:03:09.923Z,188.50
2023-05-24T10:04:10.518Z,187.96
2023-05-24T10:05:09.887Z,188.12
2023-05-24T10:06:09.842Z,188.23
2023-05-24T10:07:09.832Z,187.86
2023-05-24T10:08:09.833Z,187.27
2023-05-24T10:09:09.950Z,187.37
2023-05-24T10:10:09.813Z,187.22
2023-05-24T10:11:09.823Z,187.35
2023-05-24T10:12:09.838Z,186.90
2023-05-24T10:13:09.789Z,187.35
2023-05-24T10:14:09.779Z,187.05
2023-05-24T10:15:09.767Z,185.71
2023-05-24T10:16:09.907Z,185.85
2023-05-24T10:17:11.382Z,185.25
2023-05-24T10:18:12.236Z,185.13
2023-05-24T10:19:09.789Z,185.22
2023-05-24T10:20:09.781Z,185.20
2023-05-24T10:21:09.815Z,185.27
2023-05-24T10:22:09.734Z,185.12
2023-05-24T10:23:09.732Z,185.30
2023-05-24T10:24:09.730Z,184.06
2023-05-24T10:25:09.749Z,184.05
2023-05-24T10:26:09.777Z,183.89
2023-05-24T10:27:09.695Z,184.73
2023-05-24T10:28:09.696Z,183.67
2023-05-24T10:29:09.657Z,183.82
2023-05-24T10:30:12.173Z,182.80
2023-05-24T10:31:09.700Z,182.88
2023-05-24T10:32:09.761Z,182.89
2023-05-24T10:33:09.727Z,182.92
2023-05-24T10:34:09.664Z,183.44
2023-05-24T10:35:09.638Z,181.66
2023-05-24T10:36:09.980Z,181.18
2023-05-24T10:37:09.609Z,181.73
2023-05-24T10:38:09.652Z,182.03
2023-05-24T10:39:09.596Z,181.01
2023-05-24T10:40:09.613Z,181.28
2023-05-24T10:41:09.724Z,181.13
2023-05-24T10:42:10.127Z,180.20
2023-05-24T10:43:09.588Z,180.22
2023-05-24T10:44:10.284Z,179.87
2023-05-24T10:45:09.572Z,181.21
2023-05-24T10:46:09.581Z,179.91
2023-05-24T10:47:09.569Z,179.41
2023-05-24T10:48:09.599Z,177.78
2023-05-24T10:49:09.581Z,178.83
2023-05-24T10:50:09.540Z,178.43
2023-05-24T10:51:09.515Z,177.12
2023-05-24T10:52:09.521Z,178.88
2023-05-24T10:53:09.488Z,177.80
2023-05-24T10:54:09.504Z,177.76
2023-05-24T10:55:09.571Z,177.15
2023-05-24T10:56:09.474Z,176.45
2023-05-24T10:57:09.507Z,176.06
2023-05-24T10:58:09.481Z,176.81
2023-05-24T10:59:09.480Z,177.23
2023-05-24T11:00:10.090Z,179.16
2023-05-24T11:01:09.450Z,185.07
2023-05-24T11:02:09.636Z,183.65
2023-05-24T11:03:09.798Z,180.78
2023-05-24T11:04:09.433Z,171.05
2023-05-24T11:05:09.488Z,179.32
2023-05-24T11:06:09.414Z,177.19
2023-05-24T11:07:09.436Z,181.31
2023-05-24T11:08:09.472Z,182.49
2023-05-24T11:09:09.396Z,184.93
2023-05-24T11:10:09.412Z,185.32
2023-05-24T11:11:23.328Z,187.97
2023-05-24T11:12:10.364Z,188.15
2023-05-24T11:13:09.379Z,188.83
2023-05-24T11:14:09.349Z,189.87
2023-05-24T11:15:09.363Z,192.08
2023-05-24T11:16:09.381Z,194.55
2023-05-24T11:17:09.350Z,195.95
2023-05-24T11:18:11.028Z,196.25
2023-05-24T11:19:09.325Z,196.30
2023-05-24T11:20:09.377Z,197.06
2023-05-24T11:21:09.337Z,197.82
2023-05-24T11:22:09.418Z,198.80
2023-05-24T11:23:09.523Z,199.68
2023-05-24T11:24:09.546Z,199.57
2023-05-24T11:25:09.568Z,197.15
2023-05-24T11:26:09.625Z,198.24
2023-05-24T11:27:09.696Z,197.70
2023-05-24T11:28:09.751Z,198.72
2023-05-24T11:29:09.777Z,198.11
2023-05-24T11:30:09.871Z,198.35
2023-05-24T11:31:09.964Z,197.07
2023-05-24T11:32:10.163Z,184.61
2023-05-24T11:33:10.065Z,172.30
2023-05-24T11:34:10.093Z,174.84
2023-05-24T11:35:10.077Z,169.85
2023-05-24T11:36:10.049Z,169.71
2023-05-24T11:37:10.072Z,166.03
2023-05-24T11:38:10.069Z,166.52
2023-05-24T11:39:10.054Z,166.31
2023-05-24T11:40:10.240Z,164.35
2023-05-24T11:41:10.085Z,158.38
2023-05-24T11:42:10.109Z,155.12
2023-05-24T11:43:10.069Z,152.44
2023-05-24T11:44:10.106Z,150.68
2023-05-24T11:45:10.141Z,151.28
2023-05-24T11:46:10.194Z,146.91
2023-05-24T11:47:10.229Z,146.67
2023-05-24T11:48:10.281Z,148.55
2023-05-24T11:49:10.233Z,144.93
2023-05-24T11:50:10.384Z,143.62
2023-05-24T11:51:10.310Z,143.30
2023-05-24T11:52:10.366Z,140.71
2023-05-24T11:53:10.402Z,139.70
2023-05-24T11:54:10.407Z,140.20
2023-05-24T11:55:10.489Z,135.82
2023-05-24T11:56:10.528Z,133.04
2023-05-24T11:57:10.560Z,135.87
2023-05-24T11:58:10.606Z,133.01
2023-05-24T11:59:10.675Z,131.21
2023-05-24T12:00:10.759Z,131.43
2023-05-24T12:01:10.803Z,129.28
2023-05-24T12:02:10.930Z,126.61
2023-05-24T12:03:10.990Z,122.33
2023-05-24T12:04:11.008Z,120.37
2023-05-24T12:05:11.018Z,118.19
2023-05-24T12:06:11.066Z,115.55
2023-05-24T12:07:11.132Z,113.30
2023-05-24T12:08:12.698Z,111.49
2023-05-24T12:09:11.166Z,105.75
2023-05-24T12:10:11.208Z,103.81
2023-05-24T12:11:11.232Z,102.94
2023-05-24T12:12:11.245Z,101.72
2023-05-24T12:13:11.248Z,101.83
2023-05-24T12:14:11.241Z,100.69
2023-05-24T12:15:11.275Z,98.96
2023-05-24T12:16:11.289Z,100.69
2023-05-24T12:17:11.256Z,97.42
2023-05-24T12:18:11.533Z,99.83
2023-05-24T12:19:20.099Z,97.78
2023-05-24T12:20:12.358Z,97.83
2023-05-24T12:21:11.214Z,98.13
2023-05-24T12:22:11.240Z,98.55
2023-05-24T12:23:11.213Z,99.75
2023-05-24T12:24:11.218Z,100.47
2023-05-24T12:25:11.199Z,98.73
2023-05-24T12:26:11.217Z,97.51
2023-05-24T12:27:11.166Z,98.65
2023-05-24T12:28:11.192Z,97.76
2023-05-24T12:29:11.158Z,98.98
2023-05-24T12:30:11.155Z,96.32
2023-05-24T12:31:11.153Z,90.94
2023-05-24T12:32:11.167Z,86.38
2023-05-24T12:33:11.191Z,84.83
2023-05-24T12:34:11.115Z,81.32
2023-05-24T12:35:11.136Z,78.73
2023-05-24T12:36:11.147Z,77.03
2023-05-24T12:37:11.105Z,76.21
2023-05-24T12:38:11.108Z,75.06
2023-05-24T12:39:11.103Z,72.66
2023-05-24T12:40:11.099Z,72.88
2023-05-24T12:41:13.126Z,73.69
2023-05-24T12:42:11.094Z,73.94
2023-05-24T12:43:11.072Z,74.16
2023-05-24T12:44:11.057Z,74.55